Time;durP1;ratioP1;P1;durP2;ratioP2;P2;SDS_P1;SDS_P2;PMS_P1;PMS_P2;Temp;Humidity;BMP_temperature;BMP_pressure;BME280_temperature;BME280_humidity;BME280_pressure;Samples;Min_cycle;Max_cycle;Signal;HPM_P1;HPM_P2
2022/12/07 05:01:18;;;;;;;1.17;1.08;;;3.10;99.90;;;;;;5583697;23;20763;-71
2022/12/07 05:03:45;;;;;;;1.40;1.30;;;3.00;99.90;;;;;;4991388;28;20585;-70
2022/12/07 05:06:12;;;;;;;0.30;0.30;;;3.00;99.90;;;;;;4993518;28;20621;-69
2022/12/07 05:08:39;;;;;;;2.95;2.42;;;2.90;99.90;;;;;;4993804;28;20211;-70
2022/12/07 05:11:07;;;;;;;0.93;0.93;;;2.90;99.90;;;;;;4985927;28;20217;-71
2022/12/07 05:13:34;;;;;;;3.10;1.23;;;2.90;99.90;;;;;;4971058;28;20220;-70
2022/12/07 05:16:01;;;;;;;1.60;1.13;;;2.90;99.90;;;;;;4972697;28;20244;-71
2022/12/07 05:18:29;;;;;;;0.30;0.30;;;2.80;99.90;;;;;;4966226;28;20224;-70
2022/12/07 05:20:56;;;;;;;0.73;0.57;;;2.80;99.90;;;;;;4970302;28;20229;-70
2022/12/07 05:23:22;;;;;;;0.90;0.70;;;2.80;99.90;;;;;;4973870;28;20631;-70
2022/12/07 05:25:49;;;;;;;9.77;2.40;;;2.70;99.90;;;;;;4973963;28;20250;-71
2022/12/07 05:28:16;;;;;;;1.05;1.05;;;2.70;99.90;;;;;;4969806;28;20207;-71
2022/12/07 05:30:42;;;;;;;1.33;0.82;;;2.70;99.90;;;;;;4974262;28;20233;-70
2022/12/07 05:33:09;;;;;;;0.85;0.75;;;2.80;99.90;;;;;;4968274;28;20216;-70
2022/12/07 05:35:37;;;;;;;0.60;0.60;;;2.70;99.90;;;;;;4960141;28;20264;-70
2022/12/07 05:38:04;;;;;;;0.30;0.30;;;2.70;99.90;;;;;;4973686;28;20251;-70
2022/12/07 05:40:31;;;;;;;1.10;0.85;;;2.70;99.90;;;;;;4973675;28;20252;-70
2022/12/07 05:42:57;;;;;;;3.53;0.85;;;2.70;99.90;;;;;;4973924;28;20235;-71
2022/12/07 05:45:24;;;;;;;5.03;1.67;;;2.70;99.90;;;;;;4971161;28;20354;-71
2022/12/07 05:47:51;;;;;;;2.65;1.00;;;2.60;99.90;;;;;;4965774;28;20288;-70
2022/12/07 05:50:17;;;;;;;0.60;0.60;;;2.60;99.90;;;;;;4969458;28;20660;-71
2022/12/07 05:52:45;;;;;;;0.20;0.20;;;2.60;99.90;;;;;;4972033;28;20211;-71
2022/12/07 05:55:12;;;;;;;1.75;1.23;;;2.60;99.90;;;;;;4965450;28;20200;-71
2022/12/07 05:57:39;;;;;;;0.77;0.77;;;2.60;99.90;;;;;;4973231;28;20239;-71
2022/12/07 06:00:05;;;;;;;0.30;0.30;;;2.60;99.90;;;;;;4964910;28;20599;-70
2022/12/07 06:02:32;;;;;;;0.57;0.57;;;2.60;99.90;;;;;;4972857;28;20256;-71
2022/12/07 06:04:59;;;;;;;0.68;0.63;;;2.50;99.90;;;;;;4963169;28;20206;-71
2022/12/07 06:07:25;;;;;;;1.10;1.10;;;2.60;99.90;;;;;;4971086;28;20211;-70
2022/12/07 06:09:53;;;;;;;0.77;0.50;;;2.60;99.90;;;;;;4963401;28;20201;-71
2022/12/07 06:12:34;;;;;;;0.77;0.75;;;2.50;99.90;;;;;;4958201;28;20250;-70
2022/12/07 06:15:01;;;;;;;3.35;1.52;;;2.50;99.90;;;;;;4973214;28;20519;-71
2022/12/07 06:17:28;;;;;;;1.55;0.45;;;2.50;99.90;;;;;;4972477;28;20221;-70
2022/12/07 06:19:54;;;;;;;0.68;0.45;;;2.40;99.90;;;;;;4973063;28;20217;-71
2022/12/07 06:22:21;;;;;;;0.73;0.73;;;2.40;99.90;;;;;;4970489;28;20307;-72
2022/12/07 06:24:48;;;;;;;1.15;1.15;;;2.40;99.90;;;;;;4971580;28;20212;-70
2022/12/07 06:27:16;;;;;;;0.20;0.20;;;2.30;99.90;;;;;;4967445;28;20211;-71
2022/12/07 06:29:42;;;;;;;1.42;1.42;;;2.30;99.90;;;;;;4973297;28;20205;-71
2022/12/07 06:32:09;;;;;;;1.55;0.80;;;2.30;99.90;;;;;;4972851;28;20227;-71
2022/12/07 06:34:36;;;;;;;0.35;0.35;;;2.30;99.90;;;;;;4953240;28;20216;-70
2022/12/07 06:37:02;;;;;;;1.65;1.05;;;2.30;99.90;;;;;;4964113;28;20229;-70
2022/12/07 06:39:30;;;;;;;2.25;2.10;;;2.30;99.90;;;;;;4972515;28;20211;-70
2022/12/07 06:41:57;;;;;;;0.60;0.60;;;2.30;99.90;;;;;;4972728;28;20231;-71
2022/12/07 06:44:26;;;;;;;0.65;0.65;;;2.30;99.90;;;;;;4973460;28;20208;-71
2022/12/07 06:46:53;;;;;;;2.05;1.20;;;2.20;99.90;;;;;;4972375;28;20207;-70
2022/12/07 06:49:19;;;;;;;0.80;0.80;;;2.20;99.90;;;;;;4971168;28;20271;-71
2022/12/07 06:51:46;;;;;;;0.65;0.65;;;2.30;99.90;;;;;;4965081;28;20237;-68
2022/12/07 06:54:15;;;;;;;0.38;0.38;;;2.20;99.90;;;;;;4961968;28;20212;-71
2022/12/07 06:56:42;;;;;;;1.10;1.08;;;2.20;99.90;;;;;;4966531;28;20228;-72
2022/12/07 06:59:09;;;;;;;0.80;0.80;;;2.20;99.90;;;;;;4965918;28;20676;-71
2022/12/07 07:01:37;;;;;;;0.47;0.43;;;2.20;99.90;;;;;;4971115;28;20240;-71
2022/12/07 07:04:04;;;;;;;1.08;0.40;;;2.20;99.90;;;;;;4969748;28;20211;-70
2022/12/07 07:06:31;;;;;;;1.15;1.10;;;2.20;99.90;;;;;;4970613;28;20598;-70
2022/12/07 07:08:58;;;;;;;0.98;0.98;;;2.20;99.90;;;;;;4971765;28;20275;-70
2022/12/07 07:11:24;;;;;;;0.77;0.77;;;2.20;99.90;;;;;;4965394;28;20295;-71
2022/12/07 07:13:51;;;;;;;3.70;0.93;;;2.20;99.90;;;;;;4959151;28;20305;-70
2022/12/07 07:16:18;;;;;;;0.55;0.52;;;2.20;99.90;;;;;;4959352;28;20212;-70
2022/12/07 07:18:46;;;;;;;1.20;1.20;;;2.20;99.90;;;;;;4962846;28;20216;-71
2022/12/07 07:21:12;;;;;;;0.93;0.93;;;2.20;99.90;;;;;;4958547;28;20597;-71
2022/12/07 07:23:39;;;;;;;1.02;1.02;;;2.20;99.90;;;;;;4963560;28;20205;-71
2022/12/07 07:26:05;;;;;;;2.63;2.58;;;2.30;99.90;;;;;;4971853;28;20262;-70
2022/12/07 07:28:32;;;;;;;0.20;0.20;;;2.30;99.90;;;;;;4971926;28;20468;-72
2022/12/07 07:30:59;;;;;;;3.53;3.33;;;2.30;99.90;;;;;;4969509;28;20221;-72
2022/12/07 07:33:26;;;;;;;3.60;1.38;;;2.40;99.90;;;;;;4956979;28;20213;-70
2022/12/07 07:35:53;;;;;;;1.77;1.77;;;2.40;99.90;;;;;;4966247;28;20207;-70
2022/12/07 07:38:20;;;;;;;3.97;1.45;;;2.40;99.90;;;;;;4971886;28;20236;-71
2022/12/07 07:40:47;;;;;;;1.60;1.48;;;2.40;99.90;;;;;;4964623;28;20248;-70
2022/12/07 07:43:14;;;;;;;0.95;0.95;;;2.40;99.90;;;;;;4970331;28;20267;-70
2022/12/07 07:45:41;;;;;;;0.50;0.50;;;2.40;99.90;;;;;;4971474;28;20220;-70
2022/12/07 07:48:07;;;;;;;0.30;0.30;;;2.40;99.90;;;;;;4959082;28;20294;-70
2022/12/07 07:50:34;;;;;;;1.30;1.27;;;2.50;99.90;;;;;;4961599;28;20229;-70
2022/12/07 07:53:02;;;;;;;0.65;0.65;;;2.50;99.90;;;;;;4963225;28;20558;-70
2022/12/07 07:55:29;;;;;;;0.65;0.38;;;2.50;99.90;;;;;;4971519;28;20213;-71
2022/12/07 07:57:55;;;;;;;4.70;1.42;;;2.60;99.90;;;;;;4971037;28;20224;-71
2022/12/07 08:00:23;;;;;;;2.47;2.28;;;2.60;99.90;;;;;;4970342;28;20208;-70
2022/12/07 08:02:50;;;;;;;2.17;2.05;;;2.60;99.90;;;;;;4968826;28;20599;-70
2022/12/07 08:05:17;;;;;;;0.80;0.80;;;2.60;99.90;;;;;;4968430;28;20216;-70
2022/12/07 08:07:44;;;;;;;2.03;1.92;;;2.70;99.90;;;;;;4963428;28;20220;-71
2022/12/07 08:10:14;;;;;;;0.93;0.85;;;2.70;99.90;;;;;;4972019;28;20201;-71
2022/12/07 08:15:24;;;;;;;0.55;0.55;;;2.90;99.90;;;;;;4969603;28;20208;-72
2022/12/07 08:17:50;;;;;;;3.38;1.33;;;2.80;99.90;;;;;;4964020;28;20227;-71
2022/12/07 08:20:17;;;;;;;2.15;1.70;;;2.90;99.90;;;;;;4967981;28;20213;-71
2022/12/07 08:22:44;;;;;;;0.40;0.40;;;2.90;99.90;;;;;;4965729;28;20659;-72
2022/12/07 08:25:12;;;;;;;1.60;1.45;;;2.90;99.90;;;;;;4971080;28;20556;-69
2022/12/07 08:27:39;;;;;;;2.25;0.60;;;2.90;99.90;;;;;;4970906;28;20209;-70
2022/12/07 08:30:06;;;;;;;0.75;0.60;;;2.90;99.90;;;;;;4969191;28;20224;-71
2022/12/07 08:32:33;;;;;;;0.82;0.82;;;2.90;99.90;;;;;;4968349;28;20244;-71
2022/12/07 08:35:00;;;;;;;3.22;1.38;;;2.90;99.90;;;;;;4962081;28;20212;-70
2022/12/07 08:37:26;;;;;;;0.20;0.20;;;3.00;99.90;;;;;;4962886;28;20233;-72
2022/12/07 08:39:54;;;;;;;1.15;1.15;;;3.00;99.90;;;;;;4970879;28;20212;-70
2022/12/07 08:42:27;;;;;;;0.75;0.75;;;3.00;99.90;;;;;;4969825;28;20311;-71
2022/12/07 08:44:53;;;;;;;2.03;1.35;;;3.00;99.90;;;;;;4970079;28;20263;-71
2022/12/07 08:47:20;;;;;;;1.02;1.02;;;3.00;99.90;;;;;;4969930;28;20205;-71
2022/12/07 08:49:51;;;;;;;0.65;0.65;;;3.10;99.90;;;;;;4967037;28;20357;-70
2022/12/07 08:52:18;;;;;;;1.63;1.58;;;3.10;99.90;;;;;;4969065;28;20296;-72
2022/12/07 08:54:45;;;;;;;1.10;1.02;;;3.10;99.90;;;;;;4963069;28;20208;-71
2022/12/07 08:57:12;;;;;;;1.33;1.27;;;3.10;99.90;;;;;;4970503;28;20222;-71
2022/12/07 08:59:40;;;;;;;2.40;0.82;;;3.20;99.90;;;;;;4957666;28;20691;-72
2022/12/07 09:02:07;;;;;;;2.25;2.25;;;3.20;99.90;;;;;;4963293;28;20240;-71
2022/12/07 09:04:34;;;;;;;1.10;0.98;;;3.20;99.90;;;;;;4963859;28;20217;-70
2022/12/07 09:07:01;;;;;;;1.02;1.02;;;3.20;99.90;;;;;;4970156;28;20726;-71
2022/12/07 09:09:28;;;;;;;0.90;0.88;;;3.30;99.90;;;;;;4969489;28;20640;-70
2022/12/07 09:11:54;;;;;;;0.52;0.52;;;3.30;99.90;;;;;;4962060;28;20241;-71
2022/12/07 09:14:21;;;;;;;0.40;0.40;;;3.40;99.90;;;;;;4973972;28;20697;-71
2022/12/07 09:16:50;;;;;;;0.70;0.70;;;3.40;99.90;;;;;;4969017;28;20658;-70
2022/12/07 09:19:18;;;;;;;3.30;2.05;;;3.40;99.90;;;;;;4968874;28;20267;-71
2022/12/07 09:21:44;;;;;;;0.52;0.52;;;3.50;99.90;;;;;;4969261;28;20252;-70
2022/12/07 09:24:12;;;;;;;0.50;0.50;;;3.60;99.90;;;;;;4974317;28;20204;-71
2022/12/07 09:26:40;;;;;;;3.53;1.35;;;3.60;99.90;;;;;;4974442;28;20209;-70
2022/12/07 09:29:07;;;;;;;0.73;0.73;;;3.60;99.90;;;;;;4973636;28;20200;-69
2022/12/07 09:31:33;;;;;;;0.73;0.65;;;3.60;99.90;;;;;;4971984;28;20577;-71
2022/12/07 09:34:02;;;;;;;0.88;0.88;;;3.70;99.90;;;;;;4969637;28;20223;-70
2022/12/07 09:36:29;;;;;;;0.68;0.68;;;3.70;99.90;;;;;;4972602;28;20599;-70
2022/12/07 09:38:56;;;;;;;1.65;1.17;;;3.70;99.90;;;;;;4973842;28;20229;-71
2022/12/07 09:41:24;;;;;;;2.90;1.00;;;3.70;99.90;;;;;;4965904;28;20244;-69
2022/12/07 09:43:51;;;;;;;0.77;0.77;;;3.70;99.90;;;;;;4971553;28;20213;-71
2022/12/07 09:46:20;;;;;;;5.75;1.10;;;3.80;99.90;;;;;;4975730;28;20210;-71
2022/12/07 09:48:48;;;;;;;0.80;0.80;;;3.80;99.90;;;;;;4966316;28;20206;-72
2022/12/07 09:51:20;;;;;;;0.63;0.63;;;3.90;99.90;;;;;;4968360;28;20232;-72
2022/12/07 09:53:47;;;;;;;1.55;1.45;;;3.90;99.90;;;;;;4966695;28;20244;-72
2022/12/07 09:56:15;;;;;;;1.08;1.08;;;3.90;99.90;;;;;;4960257;28;20222;-72
2022/12/07 09:58:42;;;;;;;0.50;0.50;;;3.90;99.90;;;;;;4965770;28;20362;-71
2022/12/07 10:01:13;;;;;;;0.22;0.22;;;3.90;99.90;;;;;;4954704;29;20241;-71
2022/12/07 10:03:43;;;;;;;1.52;1.42;;;3.90;99.90;;;;;;4967744;28;20240;-70
2022/12/07 10:06:13;;;;;;;1.00;1.00;;;3.90;99.90;;;;;;4961941;28;20213;-71
2022/12/07 10:08:43;;;;;;;0.55;0.55;;;4.00;99.90;;;;;;4969902;28;20204;-72
2022/12/07 10:11:10;;;;;;;0.80;0.80;;;4.00;99.90;;;;;;4966524;28;20256;-70
2022/12/07 10:13:39;;;;;;;0.55;0.55;;;4.00;99.90;;;;;;4970632;28;20228;-73
2022/12/07 10:16:07;;;;;;;0.30;0.30;;;4.10;99.90;;;;;;4956358;28;20212;-72
2022/12/07 10:18:36;;;;;;;2.08;0.88;;;4.10;99.90;;;;;;4970331;28;20595;-72
2022/12/07 10:21:10;;;;;;;2.55;2.45;;;4.10;99.90;;;;;;4967345;28;20280;-73
2022/12/07 10:23:37;;;;;;;0.68;0.68;;;4.20;99.90;;;;;;4970685;28;20233;-70
2022/12/07 10:26:28;;;;;;;0.63;0.63;;;4.30;99.90;;;;;;4970958;28;20255;-70
2022/12/07 10:28:55;;;;;;;1.65;1.42;;;4.30;99.90;;;;;;4972576;28;20232;-71
2022/12/07 10:31:24;;;;;;;1.40;1.30;;;4.30;99.90;;;;;;4967707;28;20328;-71
2022/12/07 10:33:53;;;;;;;4.55;1.65;;;4.40;99.90;;;;;;4978873;28;20277;-71
2022/12/07 10:36:23;;;;;;;12.07;1.88;;;4.40;99.90;;;;;;4972745;28;20408;-71
2022/12/07 10:38:53;;;;;;;0.20;0.20;;;4.40;99.90;;;;;;4973477;28;20225;-70
2022/12/07 10:41:20;;;;;;;0.30;0.30;;;4.40;99.90;;;;;;4958778;28;20226;-71
2022/12/07 10:43:51;;;;;;;0.90;0.90;;;4.40;99.90;;;;;;4972115;28;20229;-71
2022/12/07 10:46:41;;;;;;;1.25;1.25;;;4.40;99.90;;;;;;4960250;28;20314;-71
2022/12/07 10:49:28;;;;;;;0.60;0.60;;;4.40;99.90;;;;;;4958457;28;20210;-70
2022/12/07 10:52:02;;;;;;;0.30;0.30;;;4.50;99.90;;;;;;4959794;28;20276;-70
2022/12/07 10:54:40;;;;;;;1.67;1.10;;;4.50;99.90;;;;;;4970498;28;20656;-70
2022/12/07 10:57:25;;;;;;;0.70;0.70;;;4.60;99.90;;;;;;4972260;28;20210;-74
2022/12/07 11:00:05;;;;;;;0.77;0.77;;;4.60;99.90;;;;;;4970625;28;20209;-70
2022/12/07 11:03:03;;;;;;;0.20;0.20;;;4.70;99.90;;;;;;4958646;28;20293;-70
2022/12/07 11:05:39;;;;;;;0.40;0.40;;;4.70;99.90;;;;;;4961585;28;20217;-72
2022/12/07 11:08:15;;;;;;;0.50;0.50;;;4.70;99.90;;;;;;4972655;28;20615;-71
2022/12/07 11:10:51;;;;;;;0.20;0.20;;;4.80;99.90;;;;;;4973263;28;20302;-70
2022/12/07 11:13:28;;;;;;;0.30;0.30;;;4.80;99.90;;;;;;4968248;28;20207;-71
2022/12/07 11:16:20;;;;;;;0.20;0.20;;;4.80;99.90;;;;;;4960484;28;20216;-71
2022/12/07 11:18:59;;;;;;;0.47;0.47;;;4.90;99.90;;;;;;4961557;28;20223;-70
2022/12/07 11:21:31;;;;;;;0.35;0.35;;;4.90;99.90;;;;;;4961581;28;20228;-71
2022/12/07 11:24:03;;;;;;;0.20;0.20;;;4.90;99.90;;;;;;4955842;28;20242;-69
2022/12/07 11:26:42;;;;;;;0.60;0.60;;;4.80;99.90;;;;;;4955920;28;20248;-69
2022/12/07 11:29:34;;;;;;;0.43;0.43;;;4.70;99.90;;;;;;4954064;28;20746;-68
2022/12/07 11:32:12;;;;;;;1.33;0.88;;;4.70;99.90;;;;;;4952718;28;20787;-68
2022/12/07 11:34:48;;;;;;;0.63;0.60;;;4.70;99.90;;;;;;4959869;28;20205;-67
2022/12/07 11:37:20;;;;;;;0.20;0.20;;;4.70;99.90;;;;;;4971812;28;20212;-68
2022/12/07 11:39:52;;;;;;;0.40;0.40;;;4.70;99.90;;;;;;4971266;28;20300;-68
2022/12/07 11:42:23;;;;;;;0.10;0.10;;;4.70;99.90;;;;;;4971323;28;20703;-67
2022/12/07 11:44:54;;;;;;;0.10;0.10;;;5.10;99.90;;;;;;4966044;28;20209;-68
2022/12/07 11:47:31;;;;;;;1.48;0.57;;;4.80;99.90;;;;;;4971229;28;20205;-68
2022/12/07 11:50:06;;;;;;;0.40;0.40;;;4.80;99.90;;;;;;4970532;28;20204;-68
2022/12/07 11:52:44;;;;;;;0.30;0.30;;;4.80;99.90;;;;;;4965211;28;20236;-68
2022/12/07 11:55:20;;;;;;;1.75;1.70;;;4.70;99.90;;;;;;4964040;28;20246;-68
2022/12/07 11:57:52;;;;;;;1.00;1.00;;;4.70;99.90;;;;;;4963140;28;20256;-67
2022/12/07 12:00:20;;;;;;;3.60;1.20;;;5.00;99.90;;;;;;4970877;28;20201;-67
2022/12/07 12:02:54;;;;;;;3.58;0.93;;;4.70;99.90;;;;;;4970749;28;20567;-67
2022/12/07 12:05:23;;;;;;;5.43;2.38;;;4.80;99.90;;;;;;4957346;28;20220;-69
2022/12/07 12:08:01;;;;;;;0.90;0.90;;;4.80;99.90;;;;;;4958891;28;20218;-68
2022/12/07 12:10:43;;;;;;;0.73;0.73;;;4.70;99.90;;;;;;4964282;28;20690;-69
2022/12/07 12:13:25;;;;;;;0.40;0.40;;;4.70;99.90;;;;;;4965682;28;20296;-69
2022/12/07 12:16:11;;;;;;;0.30;0.30;;;4.70;99.90;;;;;;4967244;28;20210;-69
2022/12/07 12:19:00;;;;;;;1.40;1.00;;;4.70;99.90;;;;;;4969153;28;20569;-66
2022/12/07 12:21:30;;;;;;;0.40;0.40;;;4.70;99.90;;;;;;4969692;28;20291;-68
2022/12/07 12:24:01;;;;;;;0.63;0.63;;;4.60;99.90;;;;;;4970011;28;20228;-67
2022/12/07 12:26:30;;;;;;;1.95;1.48;;;4.60;99.90;;;;;;4962838;28;20221;-68
2022/12/07 12:29:00;;;;;;;1.55;0.82;;;4.60;99.90;;;;;;4964289;28;20202;-68
2022/12/07 12:31:36;;;;;;;0.52;0.52;;;4.60;99.90;;;;;;4954071;28;20793;-68
2022/12/07 12:34:29;;;;;;;0.40;0.40;;;4.60;99.90;;;;;;4969296;28;20201;-69
2022/12/07 12:36:56;;;;;;;0.40;0.40;;;4.60;99.90;;;;;;4960089;28;20216;-68
2022/12/07 12:39:23;;;;;;;4.55;0.85;;;4.60;99.90;;;;;;4962787;28;20774;-66
2022/12/07 12:42:07;;;;;;;3.60;1.25;;;4.60;99.90;;;;;;4967309;28;20562;-68
2022/12/07 12:44:58;;;;;;;0.60;0.60;;;4.60;99.90;;;;;;4962423;28;20672;-68
2022/12/07 12:47:53;;;;;;;1.83;1.70;;;4.60;99.90;;;;;;4973810;28;20212;-68
2022/12/07 12:50:24;;;;;;;5.07;0.93;;;4.60;99.90;;;;;;4964407;28;20280;-68
2022/12/07 12:52:58;;;;;;;0.95;0.95;;;4.70;99.90;;;;;;4970884;28;20268;-68
2022/12/07 12:56:07;;;;;;;1.20;1.20;;;4.70;99.90;;;;;;4965204;28;20214;-68
2022/12/07 12:58:45;;;;;;;1.95;1.85;;;4.70;99.90;;;;;;4974542;28;20579;-67
2022/12/07 13:01:47;;;;;;;1.15;1.15;;;4.70;99.90;;;;;;4974478;28;20279;-67
2022/12/07 13:04:40;;;;;;;10.75;3.15;;;4.70;99.90;;;;;;4968453;28;20571;-67
2022/12/07 13:07:14;;;;;;;0.30;0.30;;;4.70;99.90;;;;;;4970309;28;20209;-66
2022/12/07 13:09:46;;;;;;;1.48;1.38;;;4.70;99.90;;;;;;4974199;28;20212;-67
2022/12/07 13:12:20;;;;;;;1.88;1.73;;;4.70;99.90;;;;;;4974354;28;20256;-67
2022/12/07 13:14:58;;;;;;;0.77;0.70;;;4.70;99.90;;;;;;4973838;28;20675;-66
2022/12/07 13:18:00;;;;;;;0.60;0.60;;;4.60;99.90;;;;;;4974539;28;20726;-67
2022/12/07 13:20:51;;;;;;;0.68;0.68;;;4.60;99.90;;;;;;4963872;28;20248;-67
2022/12/07 13:23:24;;;;;;;0.65;0.65;;;4.50;99.90;;;;;;4969464;28;20233;-69
2022/12/07 13:26:10;;;;;;;1.58;1.42;;;4.50;99.90;;;;;;4962716;28;20668;-69
2022/12/07 13:28:40;;;;;;;0.82;0.82;;;4.50;99.90;;;;;;4954435;29;20329;-68
2022/12/07 13:31:31;;;;;;;0.65;0.65;;;4.50;99.90;;;;;;4963672;28;20679;-68
2022/12/07 13:33:58;;;;;;;0.50;0.50;;;4.40;99.90;;;;;;4973203;28;20209;-67
2022/12/07 13:36:27;;;;;;;1.38;1.38;;;4.50;99.90;;;;;;4968709;28;20625;-68
2022/12/07 13:38:57;;;;;;;1.20;1.10;;;4.50;99.90;;;;;;4969883;28;20247;-69
2022/12/07 13:41:25;;;;;;;0.63;0.63;;;4.50;99.90;;;;;;4973526;28;20235;-67
2022/12/07 13:44:02;;;;;;;6.82;1.65;;;4.60;99.90;;;;;;4957856;28;20213;-68
2022/12/07 13:46:42;;;;;;;0.40;0.40;;;4.60;99.90;;;;;;4954333;29;20214;-68
2022/12/07 13:49:22;;;;;;;1.95;0.50;;;4.50;99.90;;;;;;4959853;28;20280;-70
2022/12/07 13:51:49;;;;;;;0.60;0.60;;;4.40;99.90;;;;;;4965130;28;20712;-68
2022/12/07 13:54:18;;;;;;;0.50;0.50;;;4.40;99.90;;;;;;4961068;28;20209;-66
2022/12/07 13:56:48;;;;;;;0.47;0.47;;;4.40;99.90;;;;;;4965839;28;20205;-68
2022/12/07 13:59:18;;;;;;;0.73;0.73;;;4.30;99.90;;;;;;4972881;28;20307;-68
2022/12/07 14:01:47;;;;;;;1.02;0.65;;;4.30;99.90;;;;;;4962600;28;20249;-67
2022/12/07 14:04:30;;;;;;;1.05;0.60;;;4.30;99.90;;;;;;4968752;28;20313;-68
2022/12/07 14:06:57;;;;;;;0.85;0.85;;;4.30;99.90;;;;;;4965679;28;20276;-66
2022/12/07 14:09:27;;;;;;;0.63;0.30;;;4.20;99.90;;;;;;4971467;28;20346;-69
2022/12/07 14:11:56;;;;;;;0.82;0.82;;;4.20;99.90;;;;;;4973751;28;20225;-68
2022/12/07 14:14:26;;;;;;;1.00;0.95;;;4.20;99.90;;;;;;4972756;28;20209;-68
2022/12/07 14:17:02;;;;;;;3.40;1.05;;;4.20;99.90;;;;;;4973578;28;20260;-68
2022/12/07 14:19:47;;;;;;;1.27;0.73;;;4.10;99.90;;;;;;4959137;28;20229;-68
2022/12/07 14:22:26;;;;;;;0.73;0.73;;;4.10;99.90;;;;;;4964122;28;20595;-69
2022/12/07 14:25:02;;;;;;;0.40;0.40;;;4.00;99.90;;;;;;4966524;28;20239;-67
2022/12/07 14:27:33;;;;;;;0.38;0.38;;;4.00;99.90;;;;;;4972895;28;20208;-67
2022/12/07 14:30:01;;;;;;;4.00;2.95;;;4.00;99.90;;;;;;4971553;28;20201;-68
2022/12/07 14:32:30;;;;;;;2.67;0.68;;;3.90;99.90;;;;;;4971021;28;20692;-69
2022/12/07 14:34:59;;;;;;;1.17;1.17;;;3.90;99.90;;;;;;4968276;28;20214;-69
2022/12/07 14:37:27;;;;;;;8.07;0.80;;;3.80;99.90;;;;;;4965291;28;20209;-69
2022/12/07 14:39:54;;;;;;;0.20;0.20;;;3.80;99.90;;;;;;4972315;28;20226;-68
2022/12/07 14:42:26;;;;;;;0.45;0.45;;;3.70;99.90;;;;;;4973239;28;20251;-67
2022/12/07 14:44:53;;;;;;;0.30;0.30;;;3.80;99.90;;;;;;4972008;28;20209;-68
2022/12/07 14:47:20;;;;;;;1.95;1.23;;;3.70;99.90;;;;;;4962317;28;20205;-68
2022/12/07 14:49:47;;;;;;;0.95;0.95;;;3.70;99.90;;;;;;4962348;28;20209;-69
2022/12/07 14:52:17;;;;;;;0.38;0.38;;;3.70;99.90;;;;;;4962577;28;20221;-67
2022/12/07 14:54:44;;;;;;;0.55;0.47;;;3.70;99.90;;;;;;4971649;28;20798;-68
2022/12/07 14:57:11;;;;;;;4.13;0.95;;;3.70;99.90;;;;;;4972363;28;20231;-68
2022/12/07 14:59:40;;;;;;;4.00;1.20;;;3.60;99.90;;;;;;4964591;28;20270;-67
2022/12/07 15:02:07;;;;;;;0.57;0.57;;;3.60;99.90;;;;;;4970090;28;20278;-66
2022/12/07 15:04:33;;;;;;;8.43;1.20;;;3.60;99.90;;;;;;4968379;28;20684;-66
2022/12/07 15:07:03;;;;;;;1.77;1.45;;;3.60;99.90;;;;;;4971507;28;20209;-65
2022/12/07 15:09:30;;;;;;;6.75;0.77;;;3.60;99.90;;;;;;4963118;28;20259;-67
2022/12/07 15:11:57;;;;;;;0.88;0.88;;;3.60;99.90;;;;;;4970948;28;20232;-66
2022/12/07 15:14:23;;;;;;;1.17;1.17;;;3.50;99.90;;;;;;4970013;28;20579;-66
2022/12/07 15:16:51;;;;;;;3.78;1.25;;;3.50;99.90;;;;;;4971002;28;20204;-67
2022/12/07 15:19:22;;;;;;;4.32;1.60;;;3.40;99.90;;;;;;4969398;28;20229;-66
2022/12/07 15:21:49;;;;;;;10.35;4.60;;;3.40;99.90;;;;;;4968143;28;20744;-66
2022/12/07 15:24:16;;;;;;;7.10;4.85;;;3.30;99.90;;;;;;4963381;28;20215;-67
2022/12/07 15:26:43;;;;;;;3.33;1.80;;;3.30;99.90;;;;;;4964920;28;20616;-66
2022/12/07 15:29:11;;;;;;;6.47;1.30;;;3.20;99.90;;;;;;4954511;28;20272;-67
2022/12/07 15:31:37;;;;;;;1.20;1.20;;;3.20;99.90;;;;;;4961704;28;20320;-66
2022/12/07 15:34:06;;;;;;;0.95;0.95;;;3.20;99.90;;;;;;4971711;28;20276;-66
2022/12/07 15:36:34;;;;;;;0.60;0.60;;;3.10;99.90;;;;;;4971247;28;20296;-66
2022/12/07 15:39:01;;;;;;;1.40;1.40;;;3.10;99.90;;;;;;4962713;28;20225;-67
2022/12/07 15:41:28;;;;;;;2.55;2.35;;;3.00;99.90;;;;;;4964788;28;20235;-68
2022/12/07 15:46:41;;;;;;;0.88;0.88;;;3.00;99.90;;;;;;4970624;28;20212;-68
2022/12/07 15:49:11;;;;;;;0.90;0.90;;;3.00;99.90;;;;;;4970266;28;20201;-68
2022/12/07 15:51:38;;;;;;;0.77;0.77;;;2.90;99.90;;;;;;4971858;28;20228;-69
2022/12/07 15:54:05;;;;;;;1.13;1.13;;;2.90;99.90;;;;;;4970349;28;20560;-68
2022/12/07 15:56:32;;;;;;;0.43;0.43;;;2.90;99.90;;;;;;4962846;28;20205;-68
2022/12/07 15:58:58;;;;;;;0.35;0.35;;;2.90;99.90;;;;;;4965389;28;20232;-67
2022/12/07 16:01:25;;;;;;;0.82;0.82;;;2.90;99.90;;;;;;4965925;28;20240;-68
2022/12/07 16:03:52;;;;;;;0.90;0.90;;;2.90;99.90;;;;;;4969281;28;20445;-67
2022/12/07 16:06:20;;;;;;;0.55;0.55;;;2.90;99.90;;;;;;4971035;28;20220;-73
2022/12/07 16:08:47;;;;;;;2.17;2.08;;;2.90;99.90;;;;;;4972034;28;20255;-68
2022/12/07 16:11:14;;;;;;;7.60;2.63;;;2.90;99.90;;;;;;4971230;28;20846;-67
2022/12/07 16:13:41;;;;;;;1.90;1.80;;;2.90;99.90;;;;;;4971576;28;20630;-69
2022/12/07 16:16:10;;;;;;;2.47;1.00;;;2.90;99.90;;;;;;4971619;28;20216;-68
2022/12/07 16:18:37;;;;;;;2.97;1.08;;;2.80;99.90;;;;;;4967361;28;20201;-67
2022/12/07 16:21:04;;;;;;;1.17;1.15;;;2.80;99.90;;;;;;4964518;28;20624;-68
2022/12/07 16:23:33;;;;;;;0.80;0.80;;;2.70;99.90;;;;;;4975571;28;20200;-68
2022/12/07 16:26:06;;;;;;;1.63;1.52;;;2.70;99.90;;;;;;4975079;28;20259;-69
2022/12/07 16:28:32;;;;;;;1.10;1.10;;;2.70;99.90;;;;;;4974708;28;20349;-68
2022/12/07 16:31:04;;;;;;;0.80;0.80;;;2.70;99.90;;;;;;4972832;28;20606;-68
2022/12/07 16:33:31;;;;;;;1.02;1.02;;;2.60;99.90;;;;;;4968074;28;20217;-69
2022/12/07 16:35:59;;;;;;;0.65;0.60;;;2.60;99.90;;;;;;4972662;28;20311;-69
2022/12/07 16:38:26;;;;;;;1.15;1.00;;;2.60;99.90;;;;;;4973787;28;20213;-68
2022/12/07 16:40:54;;;;;;;0.50;0.50;;;2.50;99.90;;;;;;4973863;28;20228;-68
2022/12/07 16:43:21;;;;;;;1.67;1.67;;;2.50;99.90;;;;;;4973503;28;20667;-68
2022/12/07 16:45:48;;;;;;;2.90;2.70;;;2.40;99.90;;;;;;4967020;28;20216;-69
2022/12/07 16:48:15;;;;;;;1.08;0.90;;;2.40;99.90;;;;;;4963801;28;20580;-69
2022/12/07 16:50:43;;;;;;;1.30;1.30;;;2.40;99.90;;;;;;4959176;28;20216;-69
2022/12/07 16:53:11;;;;;;;2.67;2.47;;;2.40;99.90;;;;;;4974842;28;20201;-70
2022/12/07 16:55:38;;;;;;;1.27;1.20;;;2.40;99.90;;;;;;4974682;28;20722;-69
2022/12/07 16:58:07;;;;;;;1.30;1.20;;;2.40;99.90;;;;;;4957971;28;20212;-69
2022/12/07 17:00:34;;;;;;;0.95;0.95;;;2.30;99.90;;;;;;4965905;28;20320;-70
2022/12/07 17:03:01;;;;;;;0.90;0.90;;;2.30;99.90;;;;;;4972610;28;20209;-69
2022/12/07 17:05:28;;;;;;;1.45;1.42;;;2.30;99.90;;;;;;4961046;28;20212;-68
2022/12/07 17:07:56;;;;;;;0.90;0.90;;;2.30;99.90;;;;;;4974504;28;20211;-69
2022/12/07 17:10:23;;;;;;;2.13;2.13;;;2.20;99.90;;;;;;4974747;28;20205;-69
2022/12/07 17:12:50;;;;;;;2.05;1.92;;;2.20;99.90;;;;;;4975095;28;20197;-69
2022/12/07 17:15:20;;;;;;;1.98;1.95;;;2.20;99.90;;;;;;4974404;28;20212;-68
2022/12/07 17:17:51;;;;;;;3.67;3.42;;;2.10;99.90;;;;;;4974696;28;20250;-70
2022/12/07 17:20:19;;;;;;;5.78;2.90;;;2.20;99.90;;;;;;4963633;28;20225;-69
2022/12/07 17:22:46;;;;;;;1.05;1.05;;;2.10;99.90;;;;;;4965091;28;20272;-69
2022/12/07 17:25:14;;;;;;;7.90;1.65;;;2.10;99.90;;;;;;4973654;28;20205;-68
2022/12/07 17:27:41;;;;;;;2.75;2.55;;;2.10;99.90;;;;;;4971597;28;20204;-71
2022/12/07 17:30:09;;;;;;;1.27;1.20;;;2.10;99.90;;;;;;4964217;28;20636;-69
2022/12/07 17:32:37;;;;;;;1.45;1.35;;;2.00;99.90;;;;;;4972808;28;20571;-69
2022/12/07 17:35:04;;;;;;;1.33;1.20;;;2.10;99.90;;;;;;4972190;28;20216;-68
2022/12/07 17:37:31;;;;;;;6.75;3.22;;;2.00;99.90;;;;;;4974077;28;20219;-68
2022/12/07 17:39:58;;;;;;;2.15;2.08;;;2.00;99.90;;;;;;4959231;28;20319;-69
2022/12/07 17:42:39;;;;;;;2.05;2.05;;;2.00;99.90;;;;;;4958539;28;20229;-68
2022/12/07 17:45:08;;;;;;;1.10;0.60;;;2.00;99.90;;;;;;4964319;28;20271;-70
2022/12/07 17:47:34;;;;;;;2.83;2.63;;;1.90;99.90;;;;;;4956196;28;20311;-68
2022/12/07 17:50:03;;;;;;;6.20;3.25;;;2.00;99.90;;;;;;4973773;28;20209;-70
2022/12/07 17:55:14;;;;;;;3.47;3.13;;;2.00;99.90;;;;;;4972070;28;20555;-69
2022/12/07 17:57:41;;;;;;;8.73;1.70;;;2.00;99.90;;;;;;4962467;28;20224;-70
2022/12/07 18:00:10;;;;;;;2.65;2.55;;;2.00;99.90;;;;;;4973363;28;20232;-69
2022/12/07 18:02:37;;;;;;;3.65;2.78;;;1.90;99.90;;;;;;4971195;28;20235;-70
2022/12/07 18:05:05;;;;;;;3.17;3.00;;;1.90;99.90;;;;;;4962282;28;20209;-68
2022/12/07 18:07:32;;;;;;;1.92;1.83;;;1.90;99.90;;;;;;4965615;28;20300;-69
2022/12/07 18:09:59;;;;;;;2.80;2.50;;;1.90;99.90;;;;;;4977379;28;20204;-68
2022/12/07 18:12:25;;;;;;;2.03;1.85;;;1.90;99.90;;;;;;4965551;28;20248;-70
2022/12/07 18:14:52;;;;;;;1.38;1.38;;;1.90;99.90;;;;;;4972494;28;20224;-69
2022/12/07 18:17:19;;;;;;;4.05;3.72;;;1.90;99.90;;;;;;4965853;28;20720;-70
2022/12/07 18:19:46;;;;;;;2.83;2.70;;;1.90;99.90;;;;;;4972535;28;20661;-70
2022/12/07 18:22:14;;;;;;;5.03;4.75;;;1.90;99.90;;;;;;4972447;28;20236;-69